createdAt,value
2023-03-25T00:02:07.252Z,6.47
2023-03-25T00:04:35.216Z,5.13
2023-03-25T00:07:02.642Z,5.73
2023-03-25T00:09:29.105Z,2.50
2023-03-25T00:11:55.678Z,2.30
2023-03-25T00:14:22.148Z,3.43
2023-03-25T00:16:48.847Z,4.97
2023-03-25T00:19:18.313Z,2.50
2023-03-25T00:21:44.838Z,2.10
2023-03-25T00:24:12.472Z,3.37
2023-03-25T00:26:42.643Z,3.33
2023-03-25T00:29:09.847Z,2.83
2023-03-25T00:31:36.334Z,3.67
2023-03-25T00:34:02.789Z,3.50
2023-03-25T00:36:29.619Z,3.13
2023-03-25T00:38:56.142Z,2.00
2023-03-25T00:41:25.680Z,4.97
2023-03-25T00:43:54.425Z,2.53
2023-03-25T00:46:22.822Z,3.43
2023-03-25T00:48:50.717Z,2.90
2023-03-25T00:51:21.312Z,1.07
2023-03-25T00:53:52.941Z,3.33
2023-03-25T00:56:20.707Z,6.47
2023-03-25T00:58:47.198Z,3.13
2023-03-25T01:01:23.288Z,3.30
2023-03-25T01:03:57.713Z,3.83
2023-03-25T01:06:32.321Z,2.73
2023-03-25T01:09:00.948Z,4.93
2023-03-25T01:11:30.657Z,3.00
2023-03-25T01:13:59.797Z,3.17
2023-03-25T01:16:27.449Z,1.90
2023-03-25T01:18:55.622Z,5.67
2023-03-25T01:21:22.312Z,1.63
2023-03-25T01:23:48.945Z,2.30
2023-03-25T01:26:15.475Z,2.50
2023-03-25T01:28:43.872Z,2.00
2023-03-25T01:31:13.773Z,1.17
2023-03-25T01:33:40.431Z,2.13
2023-03-25T01:36:12.877Z,0.97
2023-03-25T01:38:40.821Z,1.37
2023-03-25T01:41:08.183Z,1.87
2023-03-25T01:43:35.505Z,0.90
2023-03-25T01:46:02.136Z,0.50
2023-03-25T01:48:36.012Z,0.73
2023-03-25T01:51:12.868Z,1.57
2023-03-25T01:53:40.297Z,0.70
2023-03-25T01:56:10.359Z,0.57
2023-03-25T01:58:37.256Z,0.60
2023-03-25T02:01:04.223Z,0.40
2023-03-25T02:03:37.246Z,1.53
2023-03-25T02:06:28.528Z,0.40
2023-03-25T02:08:58.543Z,2.70
2023-03-25T02:11:29.139Z,0.67
2023-03-25T02:14:00.169Z,1.40
2023-03-25T02:17:05.713Z,0.30
2023-03-25T02:19:47.323Z,1.03
2023-03-25T02:22:49.824Z,1.27
2023-03-25T02:25:39.833Z,2.27
2023-03-25T02:28:26.037Z,0.63
2023-03-25T02:31:14.300Z,2.20
2023-03-25T02:34:02.125Z,2.67
2023-03-25T02:36:57.064Z,0.60
2023-03-25T02:39:42.548Z,2.10
2023-03-25T02:42:20.276Z,2.70
2023-03-25T02:44:59.514Z,1.60
2023-03-25T02:47:32.864Z,0.97
2023-03-25T02:50:17.700Z,2.80
2023-03-25T02:52:50.438Z,2.80
2023-03-25T02:55:19.713Z,2.70
2023-03-25T02:57:49.714Z,3.13
2023-03-25T03:00:20.842Z,1.23
2023-03-25T03:03:00.215Z,1.80
2023-03-25T03:05:31.814Z,2.93
2023-03-25T03:08:27.848Z,2.03
2023-03-25T03:11:22.756Z,2.77
2023-03-25T03:14:19.311Z,5.17
2023-03-25T03:17:03.497Z,1.33
2023-03-25T03:19:46.149Z,2.33
2023-03-25T03:22:34.248Z,2.53
2023-03-25T03:25:16.049Z,3.77
2023-03-25T03:27:48.623Z,2.33
2023-03-25T03:30:39.530Z,2.67
2023-03-25T03:33:16.853Z,1.83
2023-03-25T03:35:57.439Z,3.80
2023-03-25T03:38:30.707Z,4.60
2023-03-25T03:41:01.692Z,3.03
2023-03-25T03:43:36.407Z,2.73
2023-03-25T03:46:07.621Z,3.53
2023-03-25T03:48:41.778Z,2.97
2023-03-25T03:51:24.450Z,3.33
2023-03-25T03:54:00.495Z,3.80
2023-03-25T03:56:46.296Z,2.13
2023-03-25T03:59:19.849Z,4.70
2023-03-25T04:01:53.927Z,6.47
2023-03-25T04:04:27.032Z,5.07
2023-03-25T04:07:14.784Z,2.00
2023-03-25T04:09:57.762Z,4.23
2023-03-25T04:12:32.341Z,4.93
2023-03-25T04:15:03.791Z,3.37
2023-03-25T04:17:32.829Z,3.27
2023-03-25T04:20:00.111Z,2.97
2023-03-25T04:22:26.544Z,5.03
2023-03-25T04:24:54.941Z,7.20
2023-03-25T04:27:29.743Z,4.23
2023-03-25T04:29:57.667Z,5.30
2023-03-25T04:32:27.717Z,2.53
2023-03-25T04:34:58.575Z,4.67
2023-03-25T04:37:28.402Z,3.70
2023-03-25T04:39:56.171Z,5.40
2023-03-25T04:42:25.663Z,2.97
2023-03-25T04:44:52.794Z,4.43
2023-03-25T04:47:23.345Z,1.40
2023-03-25T04:49:49.883Z,2.90
2023-03-25T04:52:16.572Z,3.97
2023-03-25T04:54:44.726Z,4.60
2023-03-25T04:57:11.297Z,1.83
2023-03-25T04:59:38.353Z,3.87
2023-03-25T05:02:13.315Z,5.63
2023-03-25T05:04:47.547Z,3.87
2023-03-25T05:07:16.269Z,3.00
2023-03-25T05:09:43.301Z,4.07
2023-03-25T05:12:11.318Z,5.87
2023-03-25T05:14:37.896Z,6.10
2023-03-25T05:17:04.310Z,7.70
2023-03-25T05:19:34.806Z,5.97
2023-03-25T05:22:03.051Z,7.17
2023-03-25T05:24:29.609Z,7.20
2023-03-25T05:26:56.047Z,6.73
2023-03-25T05:29:22.654Z,8.13
2023-03-25T05:31:49.470Z,6.03
2023-03-25T05:34:16.990Z,6.07
2023-03-25T05:36:43.758Z,7.10
2023-03-25T05:39:10.964Z,6.67
2023-03-25T05:41:40.658Z,6.90
2023-03-25T05:44:09.189Z,11.37
2023-03-25T05:46:36.214Z,7.63
2023-03-25T05:49:02.938Z,9.17
2023-03-25T05:51:38.640Z,8.80
2023-03-25T05:54:10.897Z,7.33
2023-03-25T05:56:38.299Z,7.33
2023-03-25T05:59:04.928Z,9.00
2023-03-25T06:01:34.123Z,8.07
2023-03-25T06:04:02.546Z,6.67
2023-03-25T06:06:31.853Z,4.50
2023-03-25T06:08:58.707Z,7.70
2023-03-25T06:11:25.722Z,9.20
2023-03-25T06:13:52.543Z,6.70
2023-03-25T06:16:27.481Z,8.63
2023-03-25T06:18:59.520Z,7.63
2023-03-25T06:21:28.194Z,10.83
2023-03-25T06:23:55.386Z,9.73
2023-03-25T06:26:23.162Z,7.93
2023-03-25T06:28:49.703Z,7.93
2023-03-25T06:31:18.819Z,6.73
2023-03-25T06:33:46.157Z,9.67
2023-03-25T06:36:15.400Z,10.90
2023-03-25T06:38:42.118Z,3.47
2023-03-25T06:41:11.847Z,6.33
2023-03-25T06:43:38.828Z,6.90
2023-03-25T06:46:25.320Z,8.37
2023-03-25T06:49:14.802Z,5.47
2023-03-25T06:51:41.270Z,8.97
2023-03-25T06:54:07.795Z,7.77
2023-03-25T06:56:34.482Z,8.27
2023-03-25T06:59:01.016Z,7.13
2023-03-25T07:01:28.341Z,8.47
2023-03-25T07:03:54.834Z,9.53
2023-03-25T07:06:22.761Z,6.30
2023-03-25T07:08:49.523Z,7.73
2023-03-25T07:11:19.791Z,5.53
2023-03-25T07:13:46.247Z,7.10
2023-03-25T07:16:14.675Z,6.83
2023-03-25T07:18:41.423Z,8.63
2023-03-25T07:21:08.004Z,7.53
2023-03-25T07:23:34.563Z,8.20
2023-03-25T07:26:01.122Z,10.00
2023-03-25T07:28:27.584Z,7.57
2023-03-25T07:30:54.217Z,9.77
2023-03-25T07:33:20.883Z,9.07
2023-03-25T07:35:47.429Z,12.50
2023-03-25T07:38:13.982Z,9.00
2023-03-25T07:40:40.639Z,9.03
2023-03-25T07:43:07.217Z,8.70
2023-03-25T07:45:56.676Z,6.10
2023-03-25T07:48:24.237Z,7.97
2023-03-25T07:50:52.581Z,6.33
2023-03-25T07:53:19.377Z,10.57
2023-03-25T07:55:46.413Z,5.87
2023-03-25T07:58:12.949Z,13.03
2023-03-25T08:00:39.398Z,7.40
2023-03-25T08:03:06.559Z,7.37
2023-03-25T08:05:33.413Z,8.53
2023-03-25T08:08:00.252Z,8.50
2023-03-25T08:10:27.139Z,4.73
2023-03-25T08:12:53.881Z,4.77
2023-03-25T08:15:21.725Z,6.53
2023-03-25T08:17:48.261Z,8.47
2023-03-25T08:20:15.598Z,8.50
2023-03-25T08:22:44.695Z,7.43
2023-03-25T08:25:11.613Z,6.33
2023-03-25T08:27:38.155Z,7.60
2023-03-25T08:30:05.317Z,7.53
2023-03-25T08:32:31.810Z,5.70
2023-03-25T08:34:58.406Z,5.87
2023-03-25T08:37:25.818Z,10.10
2023-03-25T08:39:55.209Z,6.20
2023-03-25T08:42:21.668Z,5.83
2023-03-25T08:44:48.109Z,2.93
2023-03-25T08:47:14.544Z,3.73
2023-03-25T08:49:41.152Z,4.13
2023-03-25T08:52:08.773Z,3.50
2023-03-25T08:54:35.387Z,2.87
2023-03-25T08:57:02.005Z,5.03
2023-03-25T08:59:28.563Z,3.60
2023-03-25T09:01:56.129Z,3.67
2023-03-25T09:04:23.689Z,3.97
2023-03-25T09:07:10.772Z,3.27
2023-03-25T09:09:38.541Z,3.27
2023-03-25T09:12:06.465Z,3.03
2023-03-25T09:14:33.241Z,6.70
2023-03-25T09:16:59.904Z,5.57
2023-03-25T09:19:26.404Z,3.93
2023-03-25T09:21:53.043Z,3.70
2023-03-25T09:24:19.560Z,4.13
2023-03-25T09:26:46.021Z,3.00
2023-03-25T09:29:12.496Z,4.33
2023-03-25T09:31:38.987Z,2.27
2023-03-25T09:34:06.384Z,2.80
2023-03-25T09:36:32.884Z,3.57
2023-03-25T09:38:59.360Z,3.03
2023-03-25T09:41:44.563Z,3.50
2023-03-25T09:44:32.141Z,5.03
2023-03-25T09:47:02.047Z,4.27
2023-03-25T09:49:40.012Z,2.97
2023-03-25T09:52:15.369Z,3.70
2023-03-25T09:54:48.607Z,4.07
2023-03-25T09:57:20.597Z,2.87
2023-03-25T09:59:51.542Z,4.30
2023-03-25T10:02:41.764Z,3.50
2023-03-25T10:05:33.349Z,4.27
2023-03-25T10:08:21.801Z,2.13
2023-03-25T10:11:13.172Z,4.00
2023-03-25T10:13:54.910Z,4.60
2023-03-25T10:16:33.591Z,3.00
2023-03-25T10:19:21.265Z,6.03
2023-03-25T10:21:58.432Z,1.37
2023-03-25T10:24:34.750Z,5.00
2023-03-25T10:27:12.945Z,2.83
2023-03-25T10:29:45.732Z,3.40
2023-03-25T10:32:44.398Z,1.90
2023-03-25T10:35:32.132Z,2.17
2023-03-25T10:38:08.786Z,0.30
2023-03-25T10:40:49.937Z,0.60
2023-03-25T10:43:36.289Z,0.60
2023-03-25T10:46:32.123Z,1.03
2023-03-25T10:48:58.694Z,2.67
2023-03-25T10:51:34.648Z,0.43
2023-03-25T10:54:01.727Z,1.53
2023-03-25T10:56:36.536Z,1.50
2023-03-25T10:59:31.641Z,1.13
2023-03-25T11:01:59.513Z,1.77
2023-03-25T11:04:39.555Z,1.23
2023-03-25T11:07:16.454Z,1.70
2023-03-25T11:09:42.935Z,1.37
2023-03-25T11:12:09.648Z,1.17
2023-03-25T11:14:39.945Z,3.17
2023-03-25T11:17:18.412Z,2.70
2023-03-25T11:20:00.661Z,0.63
2023-03-25T11:22:30.154Z,1.87
2023-03-25T11:25:12.440Z,0.63
2023-03-25T11:28:13.641Z,1.77
2023-03-25T11:31:30.551Z,1.43
2023-03-25T11:34:11.905Z,1.17
2023-03-25T11:36:41.231Z,2.73
2023-03-25T11:39:23.849Z,2.23
2023-03-25T11:41:51.468Z,2.03
2023-03-25T11:44:32.832Z,2.47
2023-03-25T11:47:09.338Z,3.80
2023-03-25T11:49:39.955Z,3.60
2023-03-25T11:52:18.009Z,2.63
2023-03-25T11:54:45.172Z,1.73
2023-03-25T11:57:19.638Z,1.80
2023-03-25T11:59:48.197Z,3.60
2023-03-25T12:02:29.874Z,1.77
2023-03-25T12:05:03.270Z,3.23
2023-03-25T12:07:30.240Z,2.23
2023-03-25T12:09:58.695Z,4.27
2023-03-25T12:12:45.937Z,2.57
2023-03-25T12:15:21.862Z,3.50
2023-03-25T12:17:57.309Z,2.00
2023-03-25T12:20:54.628Z,2.23
2023-03-25T12:23:45.562Z,1.60
2023-03-25T12:26:17.001Z,1.93
2023-03-25T12:29:09.708Z,4.10
2023-03-25T12:31:57.838Z,2.03
2023-03-25T12:34:32.597Z,1.63
2023-03-25T12:37:19.402Z,2.90
2023-03-25T12:40:11.199Z,2.30
2023-03-25T12:43:03.807Z,3.03
2023-03-25T12:45:33.162Z,1.77
2023-03-25T12:48:30.624Z,2.60
2023-03-25T12:51:06.741Z,1.00
2023-03-25T12:53:41.202Z,2.90
2023-03-25T12:56:27.385Z,3.13
2023-03-25T12:59:22.937Z,2.73
2023-03-25T13:02:14.722Z,1.60
2023-03-25T13:05:03.240Z,5.00
2023-03-25T13:07:40.895Z,2.50
2023-03-25T13:10:18.653Z,2.30
2023-03-25T13:12:53.752Z,2.37
2023-03-25T13:15:27.392Z,1.43
2023-03-25T13:18:04.055Z,3.30
2023-03-25T13:20:37.621Z,1.90
2023-03-25T13:23:07.752Z,1.47
2023-03-25T13:25:57.097Z,1.43
2023-03-25T13:28:38.231Z,2.50
2023-03-25T13:31:08.319Z,3.10
2023-03-25T13:33:40.656Z,2.03
2023-03-25T13:36:22.363Z,2.27
2023-03-25T13:38:53.521Z,2.03
2023-03-25T13:41:29.980Z,2.00
2023-03-25T13:44:19.823Z,3.20
2023-03-25T13:46:52.427Z,2.37
2023-03-25T13:49:27.447Z,2.03
2023-03-25T13:51:54.026Z,3.57
2023-03-25T13:54:32.512Z,3.67
2023-03-25T13:57:19.134Z,2.03
2023-03-25T14:00:06.010Z,4.10
2023-03-25T14:02:57.401Z,5.50
2023-03-25T14:05:45.296Z,3.77
2023-03-25T14:08:31.267Z,3.70
2023-03-25T14:11:17.501Z,4.43
2023-03-25T14:13:59.315Z,2.37
2023-03-25T14:16:34.903Z,6.57
2023-03-25T14:19:11.540Z,3.70
2023-03-25T14:21:38.308Z,3.67
2023-03-25T14:24:18.582Z,2.50
2023-03-25T14:26:50.455Z,2.83
2023-03-25T14:29:31.403Z,6.43
2023-03-25T14:32:45.715Z,3.73
2023-03-25T14:35:32.749Z,3.60
2023-03-25T14:38:18.789Z,3.53
2023-03-25T14:41:02.090Z,3.50
2023-03-25T14:43:38.355Z,4.07
2023-03-25T14:46:10.949Z,3.40
2023-03-25T14:48:46.289Z,2.47
2023-03-25T14:51:25.952Z,3.50
2023-03-25T14:53:56.857Z,3.07
2023-03-25T14:56:34.252Z,3.40
2023-03-25T14:59:10.403Z,3.57
2023-03-25T15:01:40.425Z,2.33
2023-03-25T15:04:14.931Z,3.50
2023-03-25T15:06:42.724Z,4.10
2023-03-25T15:09:12.967Z,3.00
2023-03-25T15:11:43.270Z,3.37
2023-03-25T15:14:16.574Z,3.20
2023-03-25T15:16:45.960Z,3.83
2023-03-25T15:19:14.380Z,3.13
2023-03-25T15:22:17.349Z,2.67
2023-03-25T15:24:50.936Z,2.63
2023-03-25T15:27:51.976Z,2.20
2023-03-25T15:30:30.586Z,2.67
2023-03-25T15:33:21.163Z,2.67
2023-03-25T15:36:33.490Z,3.07
2023-03-25T15:39:09.120Z,3.20
2023-03-25T15:41:59.464Z,4.60
2023-03-25T15:44:47.810Z,3.67
2023-03-25T15:47:21.534Z,2.47
2023-03-25T15:50:25.693Z,2.93
2023-03-25T15:53:13.620Z,3.67
2023-03-25T15:55:55.308Z,2.00
2023-03-25T15:58:23.047Z,3.30
2023-03-25T16:00:55.942Z,2.83
2023-03-25T16:03:27.467Z,1.67
2023-03-25T16:05:59.676Z,3.13
2023-03-25T16:08:36.848Z,4.43
2023-03-25T16:11:18.984Z,2.57
2023-03-25T16:13:45.651Z,5.93
2023-03-25T16:16:17.269Z,4.27
2023-03-25T16:18:46.067Z,2.10
2023-03-25T16:21:12.857Z,4.00
2023-03-25T16:23:39.695Z,2.70
2023-03-25T16:26:06.636Z,0.80
2023-03-25T16:28:39.290Z,3.33
2023-03-25T16:31:06.110Z,2.37
2023-03-25T16:33:38.941Z,3.43
2023-03-25T16:36:15.416Z,3.63
2023-03-25T16:38:43.290Z,3.93
2023-03-25T16:41:15.134Z,4.37
2023-03-25T16:43:42.783Z,1.67
2023-03-25T16:46:11.780Z,3.87
2023-03-25T16:48:53.500Z,4.63
2023-03-25T16:51:32.035Z,1.13
2023-03-25T16:54:01.675Z,2.43
2023-03-25T16:56:32.920Z,0.80
2023-03-25T16:59:16.085Z,1.97
2023-03-25T17:01:50.465Z,3.33
2023-03-25T17:04:26.178Z,1.83
2023-03-25T17:07:09.326Z,1.60
2023-03-25T17:09:40.016Z,2.03
2023-03-25T17:12:09.208Z,4.57
2023-03-25T17:14:42.761Z,1.67
2023-03-25T17:17:31.939Z,5.40
2023-03-25T17:20:02.902Z,1.67
2023-03-25T17:22:39.512Z,2.27
2023-03-25T17:25:32.444Z,1.30
2023-03-25T17:28:19.832Z,1.70
2023-03-25T17:30:46.698Z,1.63
2023-03-25T17:33:19.493Z,2.07
2023-03-25T17:35:54.132Z,0.87
2023-03-25T17:38:45.191Z,1.43
2023-03-25T17:41:14.347Z,2.40
2023-03-25T17:43:43.920Z,2.00
2023-03-25T17:46:10.655Z,0.90
2023-03-25T17:48:37.268Z,2.33
2023-03-25T17:51:04.047Z,1.40
2023-03-25T17:53:30.565Z,2.20
2023-03-25T17:55:59.161Z,3.20
2023-03-25T17:58:25.811Z,2.90
2023-03-25T18:00:53.102Z,0.83
2023-03-25T18:03:22.875Z,2.43
2023-03-25T18:05:54.095Z,2.73
2023-03-25T18:08:22.997Z,1.57
2023-03-25T18:10:53.678Z,1.50
2023-03-25T18:13:24.975Z,2.93
2023-03-25T18:15:53.101Z,4.23
2023-03-25T18:18:26.174Z,2.13
2023-03-25T18:20:55.945Z,2.37
2023-03-25T18:23:23.729Z,3.97
2023-03-25T18:25:50.500Z,2.20
2023-03-25T18:28:17.215Z,3.93
2023-03-25T18:30:49.928Z,3.60
2023-03-25T18:33:17.361Z,4.30
2023-03-25T18:35:45.375Z,6.17
2023-03-25T18:38:24.455Z,4.50
2023-03-25T18:40:52.868Z,7.57
2023-03-25T18:43:20.100Z,8.20
2023-03-25T18:45:47.565Z,9.33
2023-03-25T18:48:16.962Z,6.13
2023-03-25T18:50:50.231Z,10.07
2023-03-25T18:53:16.892Z,8.13
2023-03-25T18:55:43.500Z,6.97
2023-03-25T18:58:18.846Z,5.23
2023-03-25T19:00:48.330Z,3.03
2023-03-25T19:03:15.670Z,6.60
2023-03-25T19:05:43.080Z,5.90
2023-03-25T19:08:18.786Z,4.07
2023-03-25T19:10:46.002Z,5.30
2023-03-25T19:13:12.595Z,5.80
2023-03-25T19:15:39.995Z,5.73
2023-03-25T19:18:06.776Z,5.00
2023-03-25T19:20:35.813Z,2.37
2023-03-25T19:23:04.515Z,2.53
2023-03-25T19:25:31.122Z,2.93
2023-03-25T19:27:57.564Z,3.07
2023-03-25T19:30:25.138Z,7.00
2023-03-25T19:32:57.146Z,3.30
2023-03-25T19:35:23.760Z,2.83
2023-03-25T19:37:56.140Z,2.53
2023-03-25T19:40:26.087Z,2.57
2023-03-25T19:42:54.687Z,1.80
2023-03-25T19:45:21.579Z,3.13
2023-03-25T19:47:48.930Z,2.30
2023-03-25T19:50:18.873Z,1.97
2023-03-25T19:52:47.007Z,1.43
2023-03-25T19:55:14.074Z,2.13
2023-03-25T19:57:42.197Z,2.73
2023-03-25T20:00:13.949Z,2.77
2023-03-25T20:02:45.348Z,1.73
2023-03-25T20:05:13.550Z,2.43
2023-03-25T20:07:42.685Z,2.27
2023-03-25T20:10:19.601Z,5.07
2023-03-25T20:12:48.028Z,3.57
2023-03-25T20:15:16.153Z,2.43
2023-03-25T20:17:43.168Z,3.77
2023-03-25T20:20:12.201Z,2.93
2023-03-25T20:22:39.739Z,4.07
2023-03-25T20:25:07.751Z,3.27
2023-03-25T20:27:34.762Z,2.83
2023-03-25T20:30:01.400Z,1.73
2023-03-25T20:32:39.870Z,2.17
2023-03-25T20:35:08.111Z,2.40
2023-03-25T20:37:36.873Z,7.40
2023-03-25T20:40:05.055Z,4.70
2023-03-25T20:42:31.573Z,3.20
2023-03-25T20:44:58.028Z,6.27
2023-03-25T20:47:24.631Z,3.93
2023-03-25T20:49:51.097Z,5.40
2023-03-25T20:52:17.550Z,3.23
2023-03-25T20:54:44.349Z,4.13
2023-03-25T20:57:10.895Z,3.60
2023-03-25T20:59:37.448Z,4.07
2023-03-25T21:02:04.012Z,2.27
2023-03-25T21:04:30.598Z,3.73
2023-03-25T21:06:57.353Z,3.87
2023-03-25T21:09:24.024Z,1.70
2023-03-25T21:11:50.859Z,3.87
2023-03-25T21:14:18.676Z,4.90
2023-03-25T21:16:45.652Z,4.00
2023-03-25T21:19:12.843Z,2.77
2023-03-25T21:21:39.443Z,2.10
2023-03-25T21:24:06.887Z,3.43
2023-03-25T21:26:34.457Z,3.30
2023-03-25T21:29:01.027Z,3.73
2023-03-25T21:31:28.350Z,2.33
2023-03-25T21:33:56.387Z,3.80
2023-03-25T21:36:27.162Z,3.63
2023-03-25T21:38:59.123Z,2.50
2023-03-25T21:41:27.263Z,3.23
2023-03-25T21:43:53.714Z,3.93
2023-03-25T21:46:24.295Z,4.30
2023-03-25T21:48:51.231Z,2.57
2023-03-25T21:51:18.227Z,1.40
2023-03-25T21:56:42.077Z,3.03
2023-03-25T21:59:09.279Z,2.57
2023-03-25T22:01:41.563Z,5.80
2023-03-25T22:04:08.844Z,3.93
2023-03-25T22:06:37.076Z,3.17
2023-03-25T22:09:06.354Z,4.93
2023-03-25T22:11:35.063Z,4.07
2023-03-25T22:14:01.822Z,5.33
2023-03-25T22:16:28.389Z,6.17
2023-03-25T22:18:54.865Z,5.70
2023-03-25T22:21:23.851Z,3.27
2023-03-25T22:23:54.161Z,5.23
2023-03-25T22:26:21.482Z,3.27
2023-03-25T22:28:50.544Z,8.27
2023-03-25T22:31:19.672Z,7.90
2023-03-25T22:33:46.781Z,4.07
2023-03-25T22:36:15.416Z,4.63
2023-03-25T22:38:45.344Z,3.70
2023-03-25T22:41:14.366Z,3.43
2023-03-25T22:43:41.378Z,7.07
2023-03-25T22:46:09.383Z,6.33
2023-03-25T22:48:39.185Z,6.30
2023-03-25T22:51:11.186Z,5.60
2023-03-25T22:53:37.903Z,4.37
2023-03-25T22:56:05.130Z,5.80
2023-03-25T22:58:31.857Z,6.87
2023-03-25T23:01:00.794Z,6.93
2023-03-25T23:03:28.045Z,5.47
2023-03-25T23:06:14.848Z,7.63
2023-03-25T23:08:42.436Z,4.13
2023-03-25T23:11:20.144Z,6.70
2023-03-25T23:13:49.804Z,7.63
2023-03-25T23:16:18.978Z,4.93
2023-03-25T23:18:46.095Z,9.80
2023-03-25T23:21:14.951Z,5.17
2023-03-25T23:23:52.688Z,5.30
2023-03-25T23:26:36.661Z,7.40
2023-03-25T23:29:05.547Z,8.57
2023-03-25T23:31:34.420Z,4.80
2023-03-25T23:34:06.769Z,7.23
2023-03-25T23:36:39.300Z,8.43
2023-03-25T23:39:10.171Z,5.93
2023-03-25T23:41:37.031Z,9.33
2023-03-25T23:44:04.751Z,8.23
2023-03-25T23:46:31.613Z,10.70
2023-03-25T23:49:04.118Z,4.93
2023-03-25T23:51:36.359Z,4.73
2023-03-25T23:54:04.543Z,6.87
2023-03-25T23:56:31.337Z,9.27
2023-03-25T23:58:59.376Z,7.10
